Tiempo atmosférico en la estación meteorológica de La Palma Aeropuerto, Santa Cruz de Tenerife (33 m.)



Fecha
DESCASC
Temp. máxima en grados centígrados (hora)
DESCASC
Temp. mínima en grados centígrados (hora)
DESCASC
Temp. media en grados centígrados
DESCASC
Racha de viento máxima en m/sg (hora)
DESCASC
Velocidad máxima media en intervalos de 10 minutos(hora)
DESCASC
Precipitaciones diarias en mm
DESCASC
Precipitaciones de 00:00 a 06:00 en mm
DESCASC
Precipitaciones de 06:00 a 12:00 en mm
DESCASC
Precipitaciones de 12:00 a 18:00 en mm
DESCASC
Precipitaciones de 18:00 a 24:00 en mm
DESCASC
19-09-2019 26.1 (15:30) 21.2 (07:00) 23.7 9.17 (11:50) 7.5 (11:50) 0 0 0 0 0
18-09-2019 26.2 (11:50) 22 (05:00) 24.1 8.33 (09:10) 5.83 (12:10) 0 0 0 0 0
17-09-2019 25.1 (16:50) 22.5 (00:00) 23.8 9.17 (00:10) 7.5 (00:10) 0 0 0 0 0
16-09-2019 25.7 (13:00) 20.9 (00:00) 23.3 8.89 (10:10) 7.22 (11:10) 0 0 0 0 0
15-09-2019 26.9 (14:20) 20.5 (00:00) 23.7 6.67 (12:20) 5.28 (12:20) 0 0 0 0 0
14-09-2019 27.2 (14:10) 20.8 (00:00) 24 8.33 (00:30) 5.28 (04:30) 0 0 0 0 0
13-09-2019 25.8 (13:30) 20.4 (00:00) 23.1 12.78 (10:00) 10 (10:00) 0 0 0 0 0
12-09-2019 25 (12:30) 21.5 (00:00) 23.3 15 (07:20) 12.22 (07:20) 0 0 0 0 0
11-09-2019 26.3 (13:00) 22.4 (00:00) 24.3 13.33 (17:20) 11.11 (17:20) 0 0 0 0 0
10-09-2019 26 (12:40) 22 (07:10) 24 8.89 (19:20) 7.22 (20:00) -- 0 -- -- 0
09-09-2019 26.7 (13:00) 22.1 (06:20) 24.4 9.17 (10:40) 7.5 (10:40) 0 0 0 0 0
08-09-2019 27.2 (14:10) 21.6 (00:00) 24.4 8.89 (17:00) 6.94 (16:40) 0 0 0 0 0
07-09-2019 25.6 (11:30) 20.8 (00:00) 23.2 12.78 (18:30) 10 (19:00) 0 0 0 0 0
06-09-2019 25.1 (12:40) 22 (00:00) 23.6 13.33 (11:40) 10.83 (14:30) 0 0 0 0 0
05-09-2019 25.6 (11:20) 21 (00:00) 23.3 11.67 (22:30) 9.44 (22:40) 0 0 0 0 0
04-09-2019 26 (11:40) 20.9 (00:00) 23.4 7.78 (20:00) 6.11 (20:30) 0 0 0 0 0
03-09-2019 26.4 (16:20) 20.3 (00:00) 23.3 7.22 (20:00) 6.39 (20:10) 0 0 0 0 0
02-09-2019 25.9 (13:40) 21.5 (00:00) 23.7 9.17 (00:30) 7.78 (04:50) 0 0 0 0 0
01-09-2019 26.6 (13:50) 22 (00:00) 24.3 11.39 (03:10) 8.61 (03:10) 0 0 0 0 0
31-08-2019 26.3 (12:30) 22.3 (00:00) 24.3 12.78 (20:30) 9.72 (20:30) 0 0 0 0 0
30-08-2019 26.9 (13:50) 22.3 (00:00) 24.6 10.83 (18:30) 8.33 (16:40) 0 0 0 0 0
29-08-2019 26.5 (14:30) 22.3 (00:00) 24.4 10.83 (20:40) 8.61 (20:50) 0 0 0 0 0
28-08-2019 25.5 (11:00) 22.1 (00:00) 23.8 9.72 (21:10) 7.22 (05:40) 0 0 0 0 0
27-08-2019 26.4 (14:50) 22.5 (00:00) 24.4 10.83 (04:50) 7.78 (11:10) 0 0 0 0 0
26-08-2019 26 (11:40) 22.3 (00:00) 24.1 9.72 (03:20) 7.78 (19:00) 0 0 0 0 0
25-08-2019 29.3 (12:00) 22.7 (00:00) 26 10.83 (00:20) 8.33 (00:30) 0 0 0 0 0
24-08-2019 26.8 (14:40) 22 (00:00) 24.4 11.67 (01:30) 8.33 (10:30) 0 0 0 0 0
23-08-2019 25.7 (13:30) 21.5 (00:00) 23.6 12.5 (22:20) 8.89 (21:10) 0 0 0 0 0

Gráficas

Temp. máximas Temp. mínimas Temp. medias Precipitaciones Rachas de viento máximas Velocidades máximas media en intervalos de 10 minutos

Datos horarios

Fecha y hora oficial Temperatura (ºC) Velocidad del viento (km/h) Dirección del viento Racha (km/h) Dirección de racha Precipitación (mm) Presión (hPa) Tendencia (hPa) Humedad (%)
2019-09-21 23:00:00 22.6 6 Oeste 15 Sur 0 1012.9 1.5 76
2019-09-21 22:00:00 23.5 12 Sur 21 Sur 0 1012.4 1.1 81
2019-09-21 21:00:00 23.7 12 Sur 18 Sudoeste 0 1011.8 0.3 80
2019-09-21 20:00:00 24 7 Sudeste 11 Sur 0 1011.4 0.1 79
2019-09-21 19:00:00 24.4 5 Este 9 Este 0 1011.3 -0.2 77
2019-09-21 18:00:00 24.8 8 Nordeste 13 Nordeste 0 1011.5 -0.2 74
2019-09-21 17:00:00 24.8 6 Nordeste 11 Este 0 1011.3 -0.9 72
2019-09-21 16:00:00 25.1 7 Nordeste 11 Este 0 1011.5 -1.1 72
2019-09-21 15:00:00 24.7 7 Nordeste 11 Nordeste 0 1011.7 -1 74
2019-09-21 14:00:00 24.9 6 Este 13 Este 0 1012.2 -0.3 70
2019-09-21 13:00:00 24.7 7 Este 11 Este 0 1012.6 0.4 71
2019-09-21 12:00:00 24.8 6 Este 9 Este 0 1012.7 1.2 68
2019-09-21 11:00:00 24.3 5 Este 11 Este 0 1012.5 1.2 71
2019-09-21 10:00:00 24.1 4 Este 8 Este 0 1012.2 1.3 72
2019-09-21 09:00:00 22.5 2 Sudoeste 21 Sudoeste 0 1011.5 1.2 73
2019-09-21 08:00:00 20.6 9 Oeste 11 Oeste 0 1011.3 0.9 79
2019-09-21 07:00:00 20.7 10 Sudoeste 15 Sudoeste 0 1010.9 0.3 73
2019-09-21 06:00:00 20.7 12 Sudoeste 15 Sudoeste 0 1010.3 -0.6 71
2019-09-21 05:00:00 20.7 12 Sudoeste 15 Sudoeste 0 1010.4 -0.8 70
2019-09-21 04:00:00 20.8 12 Sudoeste 15 Sudoeste 0 1010.6 -1 73
2019-09-21 03:00:00 20.9 10 Sudoeste 13 Sudoeste 0 1010.9 -1.1 77
2019-09-21 02:00:00 21.2 12 Sudoeste 15 Oeste 0 1011.2 -1 78
2019-09-21 01:00:00 21.8 8 Oeste 13 Sudoeste 0 1011.6 -0.5 76
2019-09-21 00:00:00 21.9 10 Oeste 15 Sudoeste 0 1012 0.5 75
2019-09-20 23:00:00 22.5 8 Sudoeste 15 Nordeste 0 1012.2 1.1 84
2019-09-20 22:00:00 23.4 10 Nordeste 22 Nordeste 0 1012.1 1.1 83
2019-09-20 21:00:00 23.5 14 Nordeste 24 Nordeste 0 1011.5 0.3 81
2019-09-20 20:00:00 23.8 12 Nordeste 18 Nordeste 0 1011.1 -0.3 79
2019-09-20 19:00:00 24.2 7 Nordeste 13 Nordeste 0 1011 -0.6 76
2019-09-20 18:00:00 24.7 9 Norte 15 Norte 0 1011.2 -0.6 73
2019-09-20 17:00:00 24.9 9 Norte 13 Norte 0 1011.4 -1.3 70
2019-09-20 16:00:00 25 9 Nordeste 17 Norte 0 1011.6 -1.4 71
2019-09-20 15:00:00 25.1 11 Norte 15 Nordeste 0 1011.8 -1.7 71
2019-09-20 14:00:00 24.8 10 Nordeste 13 Norte 0 1012.7 -1 71
2019-09-20 13:00:00 25.1 9 Nordeste 13 Nordeste 0 1013 0.1 70
2019-09-20 12:00:00 24.8 9 Nordeste 13 Nordeste 0 1013.5 1 72
2019-09-20 11:00:00 24.7 7 Nordeste 11 Nordeste 0 1013.7 1.7 72
2019-09-20 10:00:00 24 4 Nordeste 13 Norte 0 1012.9 1 73
2019-09-20 09:00:00 22.1 6 Noroeste 15 Oeste 0 1012.5 0.8 78
2019-09-20 08:00:00 20.4 9 Oeste 13 Oeste 0 1012 0.2 79
2019-09-20 07:00:00 20.7 9 Oeste 13 Oeste 0 1011.9 -0.4 81
2019-09-20 06:00:00 21.6 6 Noroeste 18 Norte 0 1011.7 -0.9 77
2019-09-20 05:00:00 21.6 6 Noroeste 26 Norte 0 1011.8 -1.5 79
2019-09-20 04:00:00 22.2 10 Norte 22 Norte 0 1012.3 -1.2 78
2019-09-20 03:00:00 21.5 5 Oeste 17 Nordeste 0 1012.6 -1.2 74
2019-09-20 02:00:00 21.6 7 Noroeste 15 Noroeste 0 1013.3 -0.4 73
2019-09-20 01:00:00 21.5 9 Oeste 13 Noroeste 0 1013.5 0 75
2019-09-20 00:00:00 22.1 6 Oeste 28 Norte 0 1013.8 0.8 76
2019-09-19 23:00:00 22.6 12 Norte 22 Noroeste 0 1013.7 1.1 76
2019-09-19 22:00:00 22.8 16 Norte 30 Nordeste 0 1013.5 1.1 76
2019-09-19 21:00:00 22.9 22 Norte 30 Norte 0 1013 0.6 76
2019-09-19 20:00:00 23.2 23 Norte 32 Nordeste 0 1012.6 0.4 77
2019-09-19 19:00:00 23.5 24 Norte 30 Norte 0 1012.4 0.2 75
2019-09-19 18:00:00 24 20 Norte 26 Nordeste 0 1012.4 -0.4 74
2019-09-19 17:00:00 24.1 18 Nordeste 24 Nordeste 0 1012.2 -0.9 73
2019-09-19 16:00:00 24.6 19 Norte 26 Norte 0 1012.2 -1.5 72
2019-09-19 15:00:00 25.2 21 Norte 30 Nordeste 0 1012.8 -1.1 69
2019-09-19 14:00:00 25.4 21 Norte 30 Nordeste 0 1013.1 -0.5 67
2019-09-19 13:00:00 24.5 23 Nordeste 32 Nordeste 0 1013.7 0.3 71
2019-09-19 12:00:00 24.6 26 Nordeste 33 Nordeste 0 1013.9 1 71
2019-09-19 11:00:00 24.8 21 Norte 30 Norte 0 1013.6 1.3 70
2019-09-19 10:00:00 23.8 21 Norte 28 Norte 0 1013.4 1.3 73
2019-09-19 09:00:00 22.2 12 Noroeste 21 Noroeste 0 1012.9 1.1 72
2019-09-19 08:00:00 21.3 12 Noroeste 22 Noroeste 0 1012.3 0.3 73
2019-09-19 07:00:00 21.4 14 Oeste 24 Noroeste 0 1012.1 -0.2 72
2019-09-19 06:00:00 21.4 12 Noroeste 18 Oeste 0 1011.8 -1 69
2019-09-19 05:00:00 22 11 Noroeste 15 Norte 0 1012 -1 66
2019-09-19 04:00:00 21.8 11 Oeste 24 Noroeste 0 1012.3 -0.9 69
2019-09-19 03:00:00 22.4 11 Noroeste 24 Noroeste 0 1012.8 -0.6 67
2019-09-19 02:00:00 22 12 Noroeste 21 Noroeste 0 1013 -0.5 68
2019-09-19 01:00:00 22.2 15 Noroeste 22 Noroeste 0 1013.2 0.1 69
2019-09-19 00:00:00 22.4 12 Noroeste 18 Noroeste 0 1013.4 0.9 69
2019-09-18 23:00:00 22.5 11 Noroeste 21 Noroeste 0 1013.5 1.1 70
2019-09-18 22:00:00 22.7 12 Noroeste 21 Norte 0 1013.1 1.1 68
2019-09-18 21:00:00 23 19 Norte 24 Norte 0 1012.5 0.3 72
2019-09-18 20:00:00 23.3 15 Norte 21 Norte 0 1012.4 0.3 71
2019-09-18 19:00:00 23.8 15 Norte 22 Nordeste 0 1012 -0.1 67
2019-09-18 18:00:00 24.4 15 Norte 22 Norte 0 1012.2 -0.5 66
2019-09-18 17:00:00 25 18 Norte 24 Norte 0 1012.1 -0.9 63
2019-09-18 16:00:00 25.3 19 Norte 24 Nordeste 0 1012.1 -1.1 62
2019-09-18 15:00:00 24.9 16 Nordeste 24 Norte 0 1012.7 -0.6 63
2019-09-18 14:00:00 25.2 18 Norte 24 Norte 0 1013 -0.2 63
2019-09-18 13:00:00 25.9 16 Norte 26 Nordeste 0 1013.2 0.2 62
2019-09-18 12:00:00 25.6 19 Norte 24 Norte 0 1013.3 0.8 62
2019-09-18 11:00:00 24.3 15 Norte 22 Noroeste 0 1013.2 1.1 62
2019-09-18 10:00:00 23.5 15 Norte 30 Nordeste 0 1013 1.5 65
2019-09-18 09:00:00 22.9 16 Norte 24 Norte 0 1012.5 1.5 67
2019-09-18 08:00:00 22.6 15 Noroeste 21 Noroeste 0 1012.1 1.1 65
2019-09-18 07:00:00 22.4 14 Noroeste 22 Noroeste 0 1011.5 0.2 65
2019-09-18 06:00:00 22.4 13 Noroeste 22 Noroeste 0 1011 -0.8 67
2019-09-18 05:00:00 22 13 Oeste 28 Norte 0 1011 -1.2 69
2019-09-18 04:00:00 22.6 15 Noroeste 24 Noroeste 0 1011.3 -1.2 65
2019-09-18 03:00:00 22.7 16 Noroeste 28 Norte 0 1011.8 -1.2 67
2019-09-18 02:00:00 22.8 15 Noroeste 22 Noroeste 0 1012.2 -0.8 68
2019-09-18 01:00:00 22.7 15 Oeste 22 Oeste 0 1012.5 0.1 67
2019-09-18 00:00:00 22.9 11 Noroeste 18 Norte 0 1013 0.9 70
2019-09-17 23:00:00 23.1 18 Nordeste 22 Nordeste 0 1013 1 75
2019-09-17 22:00:00 22.9 17 Norte 26 Nordeste 0 1012.4 0.6 74
2019-09-17 21:00:00 23.1 18 Norte 26 Nordeste 0 1012.1 0.3 73
2019-09-17 20:00:00 23.2 20 Nordeste 26 Nordeste 0 1012 0.4 74
2019-09-15 17:00:00 25.4 15 Norte 21 Norte 0 1013 -1.1 70
2019-09-15 16:00:00 26.2 15 Norte 22 Norte 0 1013.4 -0.8 66
2019-09-15 15:00:00 26.4 17 Norte 22 Norte 0 1013.5 -1 65
2019-09-15 14:00:00 26.4 15 Norte 21 Norte 0 1014.1 -0.7 65
2019-09-15 13:00:00 26.3 16 Norte 24 Nordeste 0 1014.2 -0.3 65
2019-09-15 12:00:00 25.8 16 Norte 18 Norte 0 1014.5 0.6 68
2019-09-15 11:00:00 25.6 15 Norte 21 Norte 0 1014.8 1.1 68
2019-09-15 10:00:00 24.5 13 Norte 18 Norte 0 1014.5 1.1 69
2019-09-15 09:00:00 22.7 14 Noroeste 22 Noroeste 0 1013.9 0.6 73
2019-09-15 08:00:00 21.1 15 Oeste 21 Oeste 0 1013.7 0.3 69
2019-09-15 07:00:00 21 14 Oeste 18 Noroeste 0 1013.4 -0.2 68
2019-09-15 06:00:00 20.8 13 Oeste 18 Oeste 0 1013.3 -0.5 75
2019-09-15 05:00:00 21 11 Oeste 22 Oeste 0 1013.4 -0.5 72
2019-09-15 04:00:00 21.1 13 Oeste 18 Oeste 0 1013.6 -0.7 69
2019-09-15 03:00:00 21.2 12 Oeste 17 Noroeste 0 1013.8 -1 71
2019-09-15 02:00:00 21.6 12 Noroeste 17 Noroeste 0 1013.9 -0.8 72
2019-09-15 01:00:00 21.9 12 Noroeste 17 Noroeste 0 1014.3 0 71
2019-09-15 00:00:00 22.2 10 Noroeste 21 Noroeste 0 1014.8 0.9 79
2019-09-14 23:00:00 22.6 13 Noroeste 21 Noroeste 0 1014.7 1.2 77
2019-09-14 22:00:00 22.9 13 Norte 22 Norte 0 1014.3 1.2 79
2019-09-14 21:00:00 23.2 16 Norte 21 Nordeste 0 1013.9 0.7 79
2019-09-14 20:00:00 23.6 15 Norte 24 Nordeste 0 1013.5 0.3 77
2019-09-14 19:00:00 24.3 17 Norte 21 Norte 0 1013.1 -0.2 74
2019-09-14 18:00:00 25 13 Norte 18 Nordeste 0 1013.2 -0.5 70
2019-09-14 17:00:00 25.5 13 Norte 18 Norte 0 1013.2 -0.8 66
2019-09-14 16:00:00 26.1 14 Norte 18 Norte 0 1013.3 -1.2 64
2019-09-14 15:00:00 26.3 13 Norte 18 Norte 0 1013.7 -1 62
2019-09-14 14:00:00 26.4 13 Norte 18 Nordeste 0 1014 -0.6 62
2019-09-14 13:00:00 26.3 13 Norte 21 Norte 0 1014.5 0.1 61
2019-09-14 12:00:00 25.9 13 Norte 18 Norte 0 1014.7 0.8 65
2019-09-14 11:00:00 25.6 11 Norte 17 Norte 0 1014.6 1 61
2019-09-14 10:00:00 23.6 13 Norte 18 Norte 0 1014.4 1.1 66
2019-09-14 09:00:00 22.7 13 Noroeste 21 Norte 0 1013.9 1 66
2019-09-14 08:00:00 21.1 14 Oeste 18 Oeste 0 1013.6 0.8 62
2019-09-14 07:00:00 21 12 Noroeste 21 Oeste 0 1013.3 0.4 62
2019-09-14 06:00:00 21.1 14 Oeste 18 Oeste 0 1012.9 -0.6 68
2019-09-14 05:00:00 21.8 12 Noroeste 30 Norte 0 1012.8 -1.2 70
2019-09-14 04:00:00 22.1 18 Noroeste 26 Noroeste 0 1012.9 -1.4 72
2019-09-14 03:00:00 22.3 12 Noroeste 28 Norte 0 1013.5 -1.3 68
2019-09-14 02:00:00 22.6 13 Noroeste 28 Norte 0 1014 -1.1 59
2019-09-14 01:00:00 22.8 12 Noroeste 30 Noroeste 0 1014.3 -0.4 58
2019-09-14 00:00:00 23.1 18 Norte 37 Norte 0 1014.8 0.7 58
2019-09-13 23:00:00 23 31 Norte 41 Nordeste 0 1015.1 1.3 70
2019-09-13 22:00:00 22.7 28 Norte 35 Norte 0 1014.7 1.2 78
2019-09-13 21:00:00 23 25 Norte 39 Norte 0 1014.1 0.7 78
2019-09-13 20:00:00 23.1 30 Norte 41 Nordeste 0 1013.8 0.6 78
2019-09-13 19:00:00 23.5 33 Norte 42 Nordeste 0 1013.5 0.1 76
2019-09-13 18:00:00 23.8 32 Nordeste 41 Nordeste 0 1013.4 -0.4 75
2019-09-13 17:00:00 24.4 33 Nordeste 45 Nordeste 0 1013.2 -1.2 73
2019-09-13 16:00:00 25 35 Norte 45 Norte 0 1013.4 -1.2 69
2019-09-13 15:00:00 25.3 28 Norte 39 Nordeste 0 1013.8 -1 70
2019-09-13 14:00:00 25.4 26 Nordeste 37 Nordeste 0 1014.4 -0.2 66
2019-09-13 13:00:00 25.4 28 Nordeste 35 Nordeste 0 1014.6 0.4 67
2019-09-13 12:00:00 25.3 27 Norte 45 Nordeste 0 1014.8 0.8 69
2019-09-13 11:00:00 24.4 35 Norte 45 Nordeste 0 1014.6 0.8 72
2019-09-13 10:00:00 23.9 36 Norte 46 Nordeste 0 1014.2 0.4 71
2019-09-13 09:00:00 23.1 32 Norte 41 Norte 0 1014 0.7 74
2019-09-13 08:00:00 22.2 18 Norte 39 Nordeste 0 1013.8 0.4 71
2019-09-13 07:00:00 22.4 18 Norte 35 Norte 0 1013.8 0.1 67
2019-09-13 06:00:00 22.1 14 Norte 37 Norte 0 1013.3 -1 62
2019-09-13 05:00:00 21.9 19 Norte 32 Norte 0 1013.4 -1.5 71
2019-09-13 04:00:00 21.8 14 Norte 30 Norte 0 1013.7 -1.4 65
2019-09-13 03:00:00 21.7 13 Norte 33 Norte 0 1014.3 -1 67
2019-09-13 02:00:00 21.8 14 Norte 32 Norte 0 1014.9 -0.8 70
2019-09-13 01:00:00 22.1 27 Norte 37 Norte 0 1015.1 0 75
2019-09-13 00:00:00 21.6 9 Noroeste 39 Norte 0 1015.3 0.6 66
2019-09-12 23:00:00 22.5 30 Norte 42 Norte 0 1015.7 1.5 74
2019-09-12 22:00:00 22.6 29 Norte 46 Norte 0 1015.1 0.7 74
2019-09-12 21:00:00 22.7 34 Norte 45 Nordeste 0 1014.7 0.4 73
2019-09-12 20:00:00 22.8 35 Norte 48 Norte 0 1014.2 -0.1 74
2019-09-12 19:00:00 23.1 31 Norte 46 Norte 0 1014.4 -0.1 73
2019-09-12 18:00:00 23.4 35 Norte 46 Norte 0 1014.3 -0.9 72
2019-09-12 17:00:00 23.5 37 Norte 45 Nordeste 0 1014.3 -1.4 71
2019-09-12 16:00:00 24 35 Nordeste 46 Nordeste 0 1014.5 -1.4 67
2019-09-12 15:00:00 24.6 34 Norte 45 Nordeste 0 1015.2 -0.8 68
2019-09-12 14:00:00 24.7 37 Norte 45 Nordeste 0 1015.7 -0.4 64
2019-09-12 13:00:00 24.5 39 Nordeste 46 Nordeste 0 1015.9 0.8 68
2019-09-12 12:00:00 24.2 39 Nordeste 46 Nordeste 0 1016 1.3 67
2019-09-12 11:00:00 24 34 Norte 45 Norte 0 1016.1 1.7 66
2019-09-12 10:00:00 23.5 35 Norte 45 Nordeste 0 1015.1 1 66
2019-09-12 09:00:00 22.2 21 Norte 50 Nordeste 0 1014.7 1 61
2019-09-12 08:00:00 22.4 33 Norte 54 Norte 0 1014.4 0.5 69
2019-09-12 07:00:00 22.3 37 Norte 48 Norte 0 1014.1 -0.3 68
2019-09-12 06:00:00 22.4 27 Norte 52 Norte 0 1013.7 -1.2 61
2019-09-12 05:00:00 22.3 38 Norte 48 Norte 0 1013.9 -1.6 66
2019-09-12 04:00:00 22.4 36 Norte 46 Norte 0 1014.4 -1.4 69
2019-09-12 03:00:00 22.4 35 Norte 46 Norte 0 1014.9 -1 69
2019-09-12 02:00:00 22.5 34 Norte 46 Norte 0 1015.5 -0.6 72
2019-09-12 01:00:00 22.7 27 Norte 45 Norte 0 1015.8 0.2 67
2019-09-12 00:00:00 22.6 33 Norte 45 Norte 0 1015.9 0.8 71
2019-09-11 23:00:00 22.6 26 Norte 39 Norte 0 1016.1 1.5 69
2019-09-11 22:00:00 22.5 32 Norte 46 Norte 0 1015.6 0.7 72
2019-09-11 21:00:00 22.6 34 Norte 46 Norte 0 1015.1 0 74
2019-09-11 20:00:00 22.7 38 Norte 46 Norte 0 1014.6 -0.4 75
2019-09-11 19:00:00 23.5 34 Norte 42 Norte 0 1014.9 -0.8 75
2019-09-11 18:00:00 24 32 Norte 48 Nordeste 0 1015.1 -1.1 67
2019-09-11 17:00:00 24.7 34 Norte 45 Norte 0 1015 -1.8 66
2019-09-11 16:00:00 25.7 24 Norte 45 Norte 0 1015.7 -1.5 55
2019-09-11 15:00:00 24.9 34 Norte 41 Norte 0 1016.2 -1.4 62
2019-09-11 14:00:00 25.8 27 Norte 39 Norte 0 1016.8 -0.8 59
2019-09-11 13:00:00 26 24 Norte 37 Nordeste 0 1017.2 0.2 55
2019-09-11 12:00:00 23.6 28 Nordeste 39 Norte 0 1017.6 0.9 66
2019-09-11 11:00:00 23.2 28 Norte 37 Norte 0 1017.6 1.3 68
2019-09-11 10:00:00 23.7 19 Norte 35 Norte 0 1017 1.2 60
2019-09-11 09:00:00 22.8 22 Norte 39 Nordeste 0 1016.7 1.3 68
2019-09-11 08:00:00 22.7 26 Norte 39 Nordeste 0 1016.3 0.6 70
2019-09-11 07:00:00 22.6 25 Norte 37 Norte 0 1015.8 -0.2 71
2019-09-11 06:00:00 22.5 19 Norte 32 Norte 0 1015.4 -0.9 71
2019-09-11 05:00:00 22.7 24 Norte 37 Norte 0 1015.7 -1.4 71
2019-09-11 04:00:00 22.7 27 Norte 35 Norte 0 1016 -1.5 76
2019-09-11 03:00:00 22.8 28 Norte 39 Norte 0 1016.3 -1.6 77
2019-09-11 02:00:00 22.9 23 Norte 32 Norte 0 1017.1 -0.6 78
2019-09-11 01:00:00 23.1 22 Norte 28 Norte 0 1017.5 -0.2 75
2019-09-11 00:00:00 22.8 19 Norte 30 Norte 0 1017.9 1 76
2019-09-10 23:00:00 22.9 25 Norte 30 Norte 0 1017.7 0.9 79
2019-09-10 22:00:00 23 21 Norte 30 Norte 0 1017.7 1.5 79
2019-09-10 21:00:00 23.3 24 Norte 30 Norte 0 1016.9 0.4 77
2019-09-10 20:00:00 23.5 26 Norte 32 Norte 0 1016.8 0.7 77
2019-09-10 19:00:00 23.8 25 Norte 30 Norte 0 1016.2 -0.3 76
2019-09-10 18:00:00 24.2 20 Norte 28 Norte 0 1016.5 -0.4 74
2019-09-10 17:00:00 24.6 23 Norte 28 Nordeste 0 1016.1 -1.3 72
2019-09-10 16:00:00 25.3 17 Norte 24 Norte 0 1016.5 -1.5 68
2019-09-10 15:00:00 25.5 19 Norte 24 Norte 0 1016.9 -1.5 67
2019-09-10 14:00:00 25.6 16 Norte 21 Norte 0 1017.4 -0.9 64
2019-09-10 13:00:00 25.6 17 Norte 21 Norte -- 1018 -0.2 65
2019-09-10 12:00:00 24.7 15 Norte 24 Norte -- 1018.4 1.2 69
2019-09-10 11:00:00 25.2 17 Norte 28 Norte 0 1018.3 1.9 67
2019-09-10 10:00:00 23.8 18 Norte 28 Norte 0 1018.2 2.1 71
2019-09-10 09:00:00 23.1 17 Noroeste 26 Noroeste 0 1017.2 1.4 68
2019-09-10 08:00:00 22.2 15 Noroeste 24 Noroeste 0 1016.4 0.3 68
2019-09-10 07:00:00 22.2 18 Noroeste 28 Noroeste 0 1016.1 0.3 71
2019-09-10 06:00:00 22.5 18 Noroeste 26 Noroeste 0 1015.8 -0.7 69
2019-09-10 05:00:00 22.4 15 Noroeste 26 Norte 0 1016.1 -0.4 70
2019-09-10 04:00:00 22.4 16 Noroeste 26 Noroeste 0 1015.8 -1.2 69
2019-09-10 03:00:00 22.6 15 Noroeste 26 Norte 0 1016.5 -0.8 72
2019-09-10 02:00:00 23 18 Norte 30 Noroeste 0 1016.5 -0.3 72
2019-09-10 01:00:00 22.9 18 Noroeste 26 Norte 0 1017 0.6 70
2019-09-10 00:00:00 23 20 Norte 28 Norte 0 1017.3 1.5 75
2019-09-09 23:00:00 23.1 21 Norte 30 Norte 0 1016.8 1.2 75
2019-09-09 22:00:00 23.3 17 Norte 30 Norte 0 1016.4 1.3 69
2019-09-09 21:00:00 23.3 21 Norte 30 Norte 0 1015.8 0.8 72
2019-09-09 20:00:00 23.5 21 Norte 32 Norte 0 1015.6 0.5 74
2019-09-09 19:00:00 23.8 26 Norte 33 Norte 0 1015.1 0.2 73
2019-09-09 18:00:00 24.4 22 Norte 30 Nordeste 0 1015 -0.4 70
2019-09-09 17:00:00 24.6 23 Norte 32 Norte 0 1015.1 -0.5 70
2019-09-09 16:00:00 25.8 23 Norte 28 Norte 0 1014.9 -1.1 65
2019-09-09 15:00:00 25.9 19 Norte 28 Norte 0 1015.4 -0.7 64
2019-09-09 14:00:00 26.1 22 Norte 26 Norte 0 1015.6 -0.4 64
2019-09-09 13:00:00 26.3 21 Norte 26 Norte 0 1016 0.4 63
2019-09-09 12:00:00 25.6 23 Norte 33 Nordeste 0 1016.1 1.3 64
2019-09-09 11:00:00 24.8 27 Nordeste 33 Nordeste 0 1016 1.9 69
2019-09-09 10:00:00 24 26 Norte 32 Norte 0 1015.6 1.9 72
2019-09-09 09:00:00 23 19 Norte 28 Norte 0 1014.8 1.2 74
2019-09-09 08:00:00 22.2 15 Noroeste 24 Oeste 0 1014.1 0.8 73
2019-09-09 07:00:00 22.4 15 Noroeste 24 Noroeste 0 1013.7 0.4 70
2019-09-09 06:00:00 22.3 13 Noroeste 26 Noroeste 0 1013.6 0 76
2019-09-09 05:00:00 22.5 15 Noroeste 26 Noroeste 0 1013.3 -0.7 76
2019-09-09 04:00:00 22.4 14 Noroeste 28 Norte 0 1013.3 -0.8 77
2019-09-09 03:00:00 22.7 20 Norte 28 Norte 0 1013.6 -0.9 82
2019-09-09 02:00:00 22.9 23 Norte 30 Norte 0 1014 -0.6 83
2019-09-09 01:00:00 23.1 19 Norte 26 Norte 0 1014.1 0.1 83
2019-09-09 00:00:00 23.3 20 Norte 26 Norte 0 1014.5 0.9 83
2019-09-08 23:00:00 23.5 17 Norte 22 Norte 0 1014.6 1.7 83
2019-09-08 22:00:00 23.5 16 Norte 24 Norte 0 1014 1.3 82
2019-09-08 21:00:00 23.4 20 Norte 30 Norte 0 1013.6 1 83
2019-09-08 20:00:00 23.7 22 Norte 28 Norte 0 1012.9 0.5 82
2019-09-08 19:00:00 24.1 20 Norte 30 Norte 0 1012.7 0.1 80
2019-09-08 18:00:00 24.5 22 Norte 32 Norte 0 1012.6 0 78
2019-09-08 17:00:00 24.6 24 Norte 32 Norte 0 1012.4 -0.5 76
2019-09-08 16:00:00 25 19 Norte 26 Norte 0 1012.6 -0.3 74
2019-09-08 15:00:00 25.9 20 Norte 26 Norte 0 1012.6 -0.6 69
2019-09-08 14:00:00 26.3 19 Norte 24 Norte 0 1012.9 -0.3 66
2019-09-08 13:00:00 26.3 19 Norte 24 Norte 0 1012.9 -0.3 62
2019-09-08 12:00:00 26.5 15 Norte 21 Norte 0 1013.2 0.6 60
2019-09-08 11:00:00 25.8 16 Norte 24 Norte 0 1013.2 1.1 62
2019-09-08 10:00:00 24.6 11 Norte 17 Norte 0 1013.2 1.4 63
2019-09-08 09:00:00 23 10 Noroeste 17 Noroeste 0 1012.6 1 70
2019-09-08 08:00:00 22.4 11 Oeste 15 Oeste 0 1012.1 0.8 71
2019-09-08 07:00:00 22.1 9 Oeste 15 Noroeste 0 1011.8 0.4 69
2019-09-08 06:00:00 22.6 10 Norte 18 Norte 0 1011.6 -0.2 64
2019-09-08 05:00:00 22.1 7 Noroeste 17 Oeste 0 1011.3 -1.1 63
2019-09-08 04:00:00 21.8 14 Oeste 18 Oeste 0 1011.4 -1.2 62
2019-09-08 03:00:00 22.4 14 Oeste 21 Noroeste 0 1011.8 -1.4 60
2019-09-08 02:00:00 22.5 10 Noroeste 24 Oeste 0 1012.4 -0.8 61
2019-09-08 01:00:00 22.6 14 Noroeste 24 Nordeste 0 1012.6 -0.4 66
2019-09-08 00:00:00 23 14 Norte 30 Norte 0 1013.2 1.1 67
2019-09-07 23:00:00 23.1 17 Norte 32 Nordeste 0 1013.2 1.4 64
2019-09-07 22:00:00 23.2 24 Norte 35 Norte 0 1013 1.6 65
2019-09-07 21:00:00 23.3 28 Norte 45 Norte 0 1012.1 0.5 67
2019-09-07 20:00:00 23.4 30 Nordeste 42 Norte 0 1011.8 -0.2 71
2019-09-07 19:00:00 23.7 36 Nordeste 46 Nordeste 0 1011.4 -0.9 72
2019-09-07 18:00:00 24.3 25 Norte 45 Nordeste 0 1011.6 -1.1 70
2019-09-07 17:00:00 23.9 26 Nordeste 37 Nordeste 0 1012 -1.1 71
2019-09-07 16:00:00 24.8 27 Nordeste 39 Nordeste 0 1012.3 -0.6 65
2019-09-07 15:00:00 24.7 24 Nordeste 35 Norte 0 1012.7 -0.5 65
2019-09-07 14:00:00 24.3 25 Nordeste 39 Norte 0 1013.1 -0.1 66
2019-09-07 13:00:00 24.4 31 Nordeste 42 Nordeste 0 1012.9 -0.1 67
2019-09-07 12:00:00 24.8 26 Nordeste 33 Norte 0 1013.2 0.5 68
2019-09-07 11:00:00 25 13 Nordeste 21 Nordeste 0 1013.2 0.9 62
2019-09-07 10:00:00 22.8 6 Norte 13 Norte 0 1013 1 64
2019-09-07 09:00:00 22.3 5 Norte 22 Norte 0 1012.7 0.7 66
2019-09-07 08:00:00 21.3 4 Noroeste 17 Norte 0 1012.3 0.5 70
2019-09-07 07:00:00 21.5 5 Noroeste 17 Norte 0 1012 -0.5 73
2019-09-07 06:00:00 21.6 7 Oeste 15 Noroeste 0 1012 -1 74
2019-09-07 05:00:00 21.6 9 Noroeste 17 Norte 0 1011.8 -1.4 75
2019-09-07 04:00:00 21.4 5 Oeste 17 Oeste 0 1012.5 -0.6 73
2019-09-07 03:00:00 20.8 8 Sudoeste 18 Este 0 1013 -0.5 76
2019-09-07 02:00:00 22.5 9 Norte 22 Norte 0 1013.2 -0.5 74
2019-09-07 01:00:00 22 8 Oeste 17 Noroeste 0 1013.1 -0.3 68
2019-09-07 00:00:00 22.2 11 Noroeste 24 Norte 0 1013.5 0.6 69
2019-09-06 23:00:00 22.4 8 Oeste 33 Norte 0 1013.7 0.9 66
2019-09-06 22:00:00 23 17 Norte 32 Norte 0 1013.4 0.6 70
2019-09-06 21:00:00 23.3 23 Norte 28 Nordeste 0 1012.9 0.3 73
2019-09-06 20:00:00 23.5 23 Norte 32 Norte 0 1012.8 -0.1 69
2019-09-06 19:00:00 23.7 30 Norte 41 Norte 0 1012.8 -0.1 69
2019-09-06 18:00:00 23.6 32 Nordeste 41 Nordeste 0 1012.6 -0.8 77
2019-09-06 17:00:00 23.6 27 Nordeste 45 Nordeste 0 1012.9 -0.7 76
2019-09-06 16:00:00 23.9 34 Nordeste 45 Norte 0 1012.9 -0.8 76
2019-09-06 15:00:00 23.8 37 Nordeste 48 Nordeste 0 1013.4 -0.6 75
2019-09-06 14:00:00 24.5 35 Norte 45 Norte 0 1013.6 0.2 71
2019-09-06 13:00:00 24.6 32 Norte 41 Norte 0 1013.7 0.7 71
2019-09-06 12:00:00 24.2 31 Norte 48 Norte 0 1014 1.4 72
2019-09-06 11:00:00 24.4 33 Norte 45 Norte 0 1013.4 1.2 74
2019-09-06 10:00:00 23.4 33 Norte 42 Norte 0 1013 1.1 77
2019-09-06 09:00:00 23.3 29 Norte 41 Norte 0 1012.6 0.9 78
2019-09-06 08:00:00 23 30 Norte 41 Norte 0 1012.2 0.6 82
2019-09-06 07:00:00 22.9 14 Norte 28 Noroeste 0 1011.9 -0.2 73
2019-09-06 06:00:00 22.5 14 Norte 37 Norte 0 1011.7 -0.7 75
2019-09-06 05:00:00 22.5 13 Norte 33 Norte 0 1011.6 -1.2 77
2019-09-06 04:00:00 22.6 10 Norte 26 Norte 0 1012.1 -0.6 75
2019-09-06 03:00:00 22.7 21 Norte 37 Norte 0 1012.4 -0.7 81
2019-09-06 02:00:00 22.8 27 Norte 39 Norte 0 1012.8 -0.6 84
2019-09-06 01:00:00 23.1 32 Norte 41 Norte 0 1012.7 -0.3 85
2019-09-06 00:00:00 23.4 34 Norte 42 Norte 0 1013.1 0.6 85
2019-09-05 23:00:00 23.7 30 Norte 42 Norte 0 1013.4 1.1 75
2019-09-05 22:00:00 23.4 18 Norte 39 Norte 0 1013 0.9 72
2019-09-05 21:00:00 23.7 29 Norte 35 Nordeste 0 1012.5 0.3 73
2019-09-05 20:00:00 23.6 30 Norte 39 Nordeste 0 1012.3 0 76
2019-09-05 19:00:00 24.1 23 Nordeste 32 Nordeste 0 1012.1 -0.7 74
2019-09-05 18:00:00 23.8 27 Nordeste 35 Nordeste 0 1012.2 -1.1 79
2019-09-05 17:00:00 24.3 14 Nordeste 21 Norte 0 1012.3 -1.3 77
2019-09-05 16:00:00 24.2 14 Nordeste 24 Nordeste 0 1012.8 -0.7 77
2019-09-05 15:00:00 24 18 Nordeste 26 Nordeste 0 1013.3 -0.7 77
2019-09-05 14:00:00 24.7 21 Norte 33 Nordeste 0 1013.6 -0.3 75
2019-09-05 13:00:00 24.9 30 Nordeste 39 Norte 0 1013.5 0 74
2019-09-05 12:00:00 24.9 19 Nordeste 26 Nordeste 0 1014 0.6 73
2019-09-05 11:00:00 25 18 Nordeste 28 Nordeste 0 1013.9 0.6 71
2019-09-05 10:00:00 24.7 21 Nordeste 26 Nordeste 0 1013.5 0.6 68
2019-09-05 09:00:00 23.7 12 Noroeste 18 Norte 0 1013.4 0.5 59
2019-09-05 08:00:00 22.3 10 Noroeste 21 Norte 0 1013.3 0.2 65
2019-09-05 07:00:00 22.3 12 Noroeste 17 Noroeste 0 1012.9 -0.5 58
2019-09-05 06:00:00 22.4 14 Noroeste 24 Noroeste 0 1012.9 -1 56
2019-09-05 05:00:00 21.2 6 Oeste 18 Noroeste 0 1013.1 -1.1 58
2019-09-05 04:00:00 22.2 11 Noroeste 18 Norte 0 1013.4 -1.3 56
2019-09-05 03:00:00 21.8 8 Oeste 22 Noroeste 0 1013.9 -1.1 59
2019-09-05 02:00:00 21.8 10 Noroeste 24 Noroeste 0 1014.2 -0.9 63
2019-09-05 01:00:00 22.3 13 Noroeste 22 Norte 0 1014.7 -0.1 63
2019-09-05 00:00:00 22.4 9 Norte 22 Norte 0 1015 0.5 64
2019-09-04 23:00:00 22.3 7 Noroeste 21 Norte 0 1015.1 0.9 59
2019-09-04 22:00:00 22.9 10 Noroeste 21 Oeste 0 1014.8 0.5 62
2019-09-04 21:00:00 23.2 19 Norte 26 Norte 0 1014.5 0 69
2019-09-04 20:00:00 23.5 21 Nordeste 28 Nordeste 0 1014.2 -0.5 65
2019-09-04 19:00:00 24.1 19 Norte 26 Norte 0 1014.3 -0.9 63
2019-09-04 18:00:00 24.5 14 Norte 18 Norte 0 1014.5 -1.1 65
2019-09-04 17:00:00 25 13 Norte 18 Norte 0 1014.7 -1.3 62
2019-09-04 16:00:00 25.2 12 Norte 17 Norte 0 1015.2 -1 62
2019-09-04 15:00:00 25.3 10 Norte 13 Norte 0 1015.6 -0.7 62
2019-09-04 14:00:00 25.3 9 Norte 17 Norte 0 1016 -0.3 65
2019-09-04 13:00:00 25.1 13 Norte 18 Norte 0 1016.2 0.2 65
2019-09-04 12:00:00 25.2 13 Nordeste 18 Nordeste 0 1016.3 0.7 65
2019-09-04 11:00:00 25.3 13 Norte 18 Norte 0 1016.3 1.2 66
2019-09-04 10:00:00 24.8 12 Norte 17 Norte 0 1016 1.3 66
2019-09-04 09:00:00 22.8 12 Noroeste 17 Noroeste 0 1015.6 1.3 61
2019-09-04 08:00:00 21.1 12 Oeste 17 Noroeste 0 1015.1 0.9 67
2019-09-04 07:00:00 21.1 10 Oeste 17 Oeste 0 1014.7 0.3 68
2019-09-04 06:00:00 21.4 9 Oeste 18 Oeste 0 1014.3 -0.6 61
2019-09-04 05:00:00 21.1 9 Oeste 15 Oeste 0 1014.2 -0.9 60
2019-09-04 04:00:00 21.4 9 Oeste 13 Oeste 0 1014.4 -1 58
2019-09-04 03:00:00 21.6 9 Oeste 15 Noroeste 0 1014.9 -0.6 63
2019-09-04 02:00:00 21.6 9 Oeste 15 Noroeste 0 1015.1 -0.2 57
2019-09-04 01:00:00 21.8 6 Noroeste 11 Noroeste 0 1015.4 0.6 56
2019-09-04 00:00:00 21.6 7 Oeste 9 Oeste 0 1015.5 1 57
2019-09-03 23:00:00 22 5 Oeste 11 Oeste 0 1015.3 1.1 55
2019-09-03 22:00:00 22.5 5 Oeste 21 Norte 0 1014.8 0.2 59
2019-09-03 21:00:00 23.6 12 Norte 26 Norte 0 1014.5 -0.2 65
2019-09-03 20:00:00 23.7 22 Norte 26 Norte 0 1014.2 -0.4 71
2019-09-03 19:00:00 24.4 9 Norte 11 Norte 0 1014.6 -0.3 68
2019-09-03 18:00:00 24.3 4 Nordeste 13 Nordeste 0 1014.7 -0.4 67
2019-09-03 17:00:00 24.7 9 Norte 15 Norte 0 1014.6 -1 64
2019-09-03 16:00:00 25.5 10 Norte 15 Norte 0 1014.9 -0.7 64
2019-09-03 15:00:00 25.4 10 Norte 15 Norte 0 1015.1 -0.6 64
2019-09-03 14:00:00 25.3 11 Norte 18 Norte 0 1015.6 0.3 65
2019-09-03 13:00:00 25.7 14 Norte 18 Nordeste 0 1015.6 1.1 64
2019-09-03 12:00:00 25.6 13 Norte 18 Norte 0 1015.7 1.6 65
2019-09-03 11:00:00 25 12 Nordeste 18 Nordeste 0 1015.3 1.6 63
2019-09-03 10:00:00 24.6 13 Norte 18 Norte 0 1014.5 1 64
2019-09-03 09:00:00 23.2 9 Norte 21 Oeste 0 1014.1 0.9 56
2019-09-03 08:00:00 21 15 Oeste 22 Oeste 0 1013.7 0.7 56
2019-09-03 07:00:00 20.6 14 Oeste 18 Noroeste 0 1013.5 0.6 60
2019-09-03 06:00:00 20.9 10 Noroeste 15 Oeste 0 1013.2 0.1 62
2019-09-03 05:00:00 20.9 10 Noroeste 17 Norte 0 1013 -0.1 64
2019-09-03 04:00:00 21.6 12 Norte 22 Norte 0 1012.9 -0.3 67
2019-09-03 03:00:00 21.7 9 Noroeste 21 Norte 0 1013.1 -0.2 64
2019-09-03 02:00:00 21.9 10 Noroeste 22 Noroeste 0 1013.1 -0.2 63
2019-09-03 01:00:00 22.1 10 Norte 24 Nordeste 0 1013.2 0.2 65
2019-09-03 00:00:00 21.8 8 Noroeste 21 Nordeste 0 1013.3 0.7 65
2019-09-02 23:00:00 22.1 12 Noroeste 28 Noroeste 0 1013.3 1 64
2019-09-02 22:00:00 22.4 15 Norte 30 Norte 0 1013 0.9 72
2019-09-02 21:00:00 22.6 19 Norte 32 Norte 0 1012.6 0.6 73
2019-09-02 20:00:00 23.1 27 Norte 32 Norte 0 1012.3 0.1 71
2019-09-02 19:00:00 23.6 24 Norte 32 Norte 0 1012.1 -0.2 69
2019-09-02 18:00:00 24.3 23 Norte 28 Norte 0 1012 -0.9 67
2019-09-02 17:00:00 24.8 18 Norte 24 Norte 0 1012.2 -1.1 62
2019-09-02 16:00:00 25.3 17 Norte 22 Norte 0 1012.3 -1.1 59
2019-09-02 15:00:00 24.4 17 Norte 24 Nordeste 0 1012.9 -0.6 63
2019-09-02 14:00:00 24.3 21 Nordeste 28 Nordeste 0 1013.3 -0.1 65
2019-09-02 13:00:00 25 17 Norte 24 Nordeste 0 1013.4 0.2 66
2019-09-02 12:00:00 24.8 19 Nordeste 28 Norte 0 1013.5 0.7 66
2019-09-02 11:00:00 24.1 19 Norte 24 Norte 0 1013.4 1.5 64
2019-09-02 10:00:00 23.2 16 Norte 28 Nordeste 0 1013.2 1.5 69
2019-09-02 09:00:00 22.8 23 Norte 28 Norte 0 1012.8 1.3 70
2019-09-02 08:00:00 22.4 16 Noroeste 26 Norte 0 1011.9 0.2 67
2019-09-02 07:00:00 22.3 17 Norte 32 Norte 0 1011.7 -0.4 72
2019-09-02 06:00:00 22.3 21 Norte 30 Norte 0 1011.5 -1 71
2019-09-02 05:00:00 22.1 24 Norte 33 Norte 0 1011.7 -0.8 74
2019-09-02 04:00:00 22.6 21 Norte 32 Norte 0 1012.1 -0.3 73
2019-09-02 03:00:00 22.5 19 Noroeste 32 Norte 0 1012.5 -0.3 71
2019-09-02 02:00:00 22.7 24 Norte 33 Norte 0 1012.5 -0.2 71
2019-09-02 01:00:00 22.6 21 Norte 33 Noroeste 0 1012.4 0.3 71
2019-09-02 00:00:00 22.3 16 Noroeste 33 Norte 0 1012.8 1.1 70
2019-09-01 23:00:00 22.5 21 Norte 37 Norte 0 1012.7 0.9 74
2019-09-01 22:00:00 22.6 30 Norte 37 Norte 0 1012.1 0 75
2019-09-01 21:00:00 22.8 27 Norte 32 Norte 0 1011.7 -0.5 74
2019-09-01 20:00:00 23.4 26 Norte 32 Norte 0 1011.8 -0.5 73
2019-09-01 19:00:00 24 18 Norte 24 Norte 0 1012.1 -0.2 72
2019-09-01 18:00:00 24.5 17 Norte 22 Nordeste 0 1012.2 -0.9 70
2019-09-01 17:00:00 24.6 20 Norte 26 Norte 0 1012.3 -1.1 68
2019-09-01 16:00:00 25.7 19 Norte 26 Norte 0 1012.3 -1.2 62
2019-09-01 15:00:00 26.2 20 Norte 30 Norte 0 1013.1 -0.8 60
2019-09-01 14:00:00 26.1 24 Norte 30 Nordeste 0 1013.4 -0.6 63
2019-09-01 13:00:00 26.2 24 Norte 32 Norte 0 1013.5 -0.2 62
2019-09-01 12:00:00 25.5 23 Norte 33 Norte 0 1013.9 0.8 63
2019-09-01 11:00:00 23.6 26 Norte 35 Norte 0 1014 1.4 69
2019-09-01 10:00:00 23.3 22 Norte 35 Norte 0 1013.7 1.3 64
2019-09-01 09:00:00 22.9 27 Norte 41 Nordeste 0 1013.1 1 70
2019-09-01 08:00:00 22.6 19 Noroeste 33 Noroeste 0 1012.6 0.2 67
2019-09-01 07:00:00 22.7 26 Norte 35 Norte 0 1012.4 -0.2 69
2019-09-01 06:00:00 22.5 22 Noroeste 35 Noroeste 0 1012.1 -0.8 67
2019-09-01 05:00:00 22.6 28 Norte 39 Norte 0 1012.4 -0.8 73
2019-09-01 04:00:00 22.6 24 Norte 41 Norte 0 1012.6 -0.8 70
2019-09-01 03:00:00 22.6 19 Norte 35 Norte 0 1012.9 -0.9 71
2019-09-01 02:00:00 22.5 19 Norte 35 Norte 0 1013.2 -0.8 72
2019-09-01 01:00:00 22.3 23 Norte 39 Norte 0 1013.4 -0.2 75
2019-09-01 00:00:00 22.8 22 Norte 39 Noroeste 0 1013.8 0.5 73
2019-08-31 23:00:00 22.6 23 Norte 35 Norte 0 1014 1 74
2019-08-31 22:00:00 22.6 26 Norte 41 Norte 0 1013.6 0.7 74
2019-08-31 21:00:00 22.8 30 Norte 46 Norte 0 1013.3 0 75
2019-08-31 20:00:00 23.2 33 Norte 42 Norte 0 1013 -0.6 76
2019-08-31 19:00:00 23.8 28 Norte 37 Norte 0 1012.9 -1.2 75
2019-08-31 18:00:00 24.5 23 Norte 30 Norte 0 1013.3 -0.9 71
2019-08-31 17:00:00 24.7 24 Norte 32 Norte 0 1013.6 -0.9 69
2019-08-31 16:00:00 24.9 25 Norte 33 Nordeste 0 1014.1 -0.5 69
2019-08-31 15:00:00 25.7 26 Norte 35 Norte 0 1014.2 -0.7 67
2019-08-31 14:00:00 25.6 26 Norte 37 Norte 0 1014.5 0.1 65
2019-08-31 13:00:00 25.5 32 Norte 37 Nordeste 0 1014.6 0.5 67
2019-08-31 12:00:00 25.4 25 Norte 39 Norte 0 1014.9 1.3 66
2019-08-31 11:00:00 24.1 28 Norte 35 Norte 0 1014.4 1.1 71
2019-08-31 10:00:00 23.4 22 Norte 37 Norte 0 1014.1 0.8 70
2019-08-31 09:00:00 23 17 Norte 37 Noroeste 0 1013.6 0.4 72
2019-08-31 08:00:00 22.6 20 Noroeste 33 Norte 0 1013.3 0.2 72
2019-08-31 07:00:00 22.7 16 Norte 33 Norte 0 1013.3 -0.1 72
2019-08-31 06:00:00 22.9 19 Norte 32 Norte 0 1013.2 -0.8 72
2019-08-31 05:00:00 22.9 28 Norte 41 Nordeste 0 1013.1 -1.4 76
2019-08-31 04:00:00 23.1 19 Noroeste 32 Norte 0 1013.4 -1.4 70
2019-08-31 03:00:00 23.2 22 Norte 30 Norte 0 1014 -0.9 76
2019-08-31 02:00:00 23.3 18 Noroeste 30 Norte 0 1014.5 -0.3 70
2019-08-31 01:00:00 23.3 18 Norte 30 Norte 0 1014.8 0.9 75
2019-08-31 00:00:00 23.3 23 Norte 30 Norte 0 1014.9 1.6 75
2019-08-30 23:00:00 23.2 24 Norte 39 Norte 0 1014.8 1.7 74
2019-08-30 22:00:00 23 27 Norte 37 Norte 0 1013.9 0.9 79
2019-08-30 21:00:00 23.1 27 Norte 35 Nordeste 0 1013.3 0.4 78
2019-08-30 20:00:00 23.5 26 Norte 33 Nordeste 0 1013.1 0 78
2019-08-30 19:00:00 23.7 27 Nordeste 39 Nordeste 0 1013 -0.1 77
2019-08-30 18:00:00 24.3 24 Norte 35 Nordeste 0 1012.9 -0.5 77
2019-08-30 17:00:00 24.6 28 Norte 37 Norte 0 1013.1 -0.8 74
2019-08-30 16:00:00 25.3 27 Norte 33 Norte 0 1013.1 -1.5 71
2019-08-30 15:00:00 26.4 19 Norte 24 Norte 0 1013.4 -1.4 63
2019-08-30 14:00:00 26.4 19 Norte 22 Norte 0 1013.9 -1 65
2019-08-30 13:00:00 26.5 16 Norte 22 Norte 0 1014.6 -0.1 63
2019-08-30 12:00:00 25.8 18 Norte 24 Norte 0 1014.8 0.4 67
2019-08-30 11:00:00 24.1 16 Norte 22 Norte 0 1014.9 0.8 72
2019-08-30 10:00:00 23.3 14 Norte 18 Norte 0 1014.7 1.8 74
2019-08-30 09:00:00 23 12 Norte 22 Norte 0 1014.4 1.8 73
2019-08-30 08:00:00 22.6 14 Norte 24 Norte 0 1014.1 1.5 76
2019-08-30 07:00:00 22.6 17 Noroeste 26 Norte 0 1012.9 -0.1 75
2019-08-30 06:00:00 22.5 18 Norte 28 Norte 0 1012.6 -0.5 78
2019-08-30 05:00:00 22.5 18 Norte 26 Norte 0 1012.6 -1 81
2019-08-30 04:00:00 22.7 22 Norte 30 Nordeste 0 1013 -1.1 84
2019-08-30 03:00:00 22.8 22 Norte 30 Norte 0 1013.1 -1 81
2019-08-30 02:00:00 23.2 16 Noroeste 28 Norte 0 1013.6 0.2 73
2019-08-30 01:00:00 23.1 21 Norte 33 Norte 0 1014.1 1 80
2019-08-30 00:00:00 23 22 Norte 32 Norte 0 1014.1 1.2 79
2019-08-29 23:00:00 23 26 Norte 32 Norte 0 1013.4 1.5 80
2019-08-29 22:00:00 23.1 25 Norte 37 Norte 0 1013.1 1.1 78
2019-08-29 21:00:00 23 27 Norte 39 Nordeste 0 1012.9 0.4 81
2019-08-29 20:00:00 23.3 29 Norte 37 Norte 0 1011.9 -0.9 80
2019-08-29 19:00:00 23.7 26 Norte 33 Norte 0 1012 -1.4 78
2019-08-29 18:00:00 24.1 22 Norte 32 Norte 0 1012.5 -0.8 77
2019-08-29 17:00:00 24.4 20 Norte 26 Norte 0 1012.8 -0.6 75
2019-08-29 16:00:00 25.3 21 Norte 28 Norte 0 1013.4 -0.4 71
2019-08-29 15:00:00 25.7 23 Norte 28 Norte 0 1013.3 -0.6 71
2019-08-29 14:00:00 26 19 Norte 24 Norte 0 1013.4 -0.1 70
2019-08-29 13:00:00 26 18 Norte 28 Norte 0 1013.8 0.8 69
2019-08-29 12:00:00 25.5 21 Norte 28 Norte 0 1013.9 1.2 69
2019-08-29 11:00:00 24.6 24 Norte 30 Norte 0 1013.5 1 73
2019-08-29 10:00:00 23.8 23 Norte 30 Norte 0 1013 0.9 75
2019-08-29 09:00:00 23.1 18 Norte 30 Norte 0 1012.7 0.5 75
2019-08-29 08:00:00 22.6 22 Norte 32 Norte 0 1012.5 0.2 79
2019-08-29 07:00:00 23 21 Noroeste 30 Noroeste 0 1012.1 -0.5 67
2019-08-29 06:00:00 22.4 18 Norte 30 Norte 0 1012.2 -0.9 76
2019-08-29 05:00:00 22.8 14 Noroeste 26 Noroeste 0 1012.3 -1.1 69
2019-08-29 04:00:00 22.7 17 Noroeste 26 Norte 0 1012.6 -0.8 72
2019-08-29 03:00:00 22.8 17 Norte 28 Norte 0 1013.1 -0.2 77
2019-08-29 02:00:00 22.8 19 Noroeste 32 Noroeste 0 1013.4 0.5 70
2019-08-29 01:00:00 22.7 20 Norte 33 Norte 0 1013.4 0.7 75
2019-08-29 00:00:00 22.8 18 Noroeste 32 Norte 0 1013.3 1.2 70
2019-08-28 23:00:00 22.8 21 Norte 33 Norte 0 1012.9 1.3 75
2019-08-28 22:00:00 22.9 21 Norte 35 Norte 0 1012.7 1.3 75
2019-08-28 21:00:00 22.9 23 Norte 33 Norte 0 1012.1 0.3 75
2019-08-28 20:00:00 23.1 26 Norte 33 Norte 0 1011.6 -0.3 76
2019-08-28 19:00:00 23.6 24 Norte 30 Norte 0 1011.4 -0.5 76
2019-08-28 18:00:00 24.3 14 Norte 21 Norte 0 1011.8 -0.5 73
2019-08-28 17:00:00 24.3 18 Norte 28 Norte 0 1011.9 -0.6 73
2019-08-28 16:00:00 24.9 19 Norte 24 Norte 0 1011.9 -1.1 70
2019-08-28 15:00:00 24.8 18 Norte 24 Norte 0 1012.3 -0.9 69
2019-08-28 14:00:00 24.7 22 Norte 28 Norte 0 1012.5 -0.3 70
2019-08-28 13:00:00 24.8 18 Norte 24 Norte 0 1013 0.6 70
2019-08-28 12:00:00 25 15 Norte 24 Norte 0 1013.2 1.3 69
2019-08-28 11:00:00 25.4 20 Norte 32 Norte 0 1012.8 1.4 68
2019-08-28 10:00:00 23.4 20 Norte 26 Norte 0 1012.4 1.1 76
2019-08-28 09:00:00 22.8 22 Norte 28 Norte 0 1011.9 0.4 76
2019-08-28 08:00:00 22.3 22 Norte 30 Norte 0 1011.4 0.1 78
2019-08-28 07:00:00 22.3 22 Norte 32 Norte 0 1011.3 0 77
2019-08-28 06:00:00 22.3 24 Norte 33 Norte 0 1011.5 -0.3 79
2019-08-28 05:00:00 22.3 23 Norte 32 Norte 0 1011.3 -1 81
2019-08-28 04:00:00 22.5 22 Norte 30 Norte 0 1011.3 -1.4 80
2019-08-28 03:00:00 22.6 20 Norte 28 Norte 0 1011.8 -1.2 82
2019-08-28 02:00:00 22.6 21 Norte 28 Norte 0 1012.3 -0.8 83
2019-08-28 01:00:00 22.5 21 Norte 28 Norte 0 1012.7 -0.1 83
2019-08-28 00:00:00 22.6 20 Norte 28 Norte 0 1013 1 84
2019-08-27 23:00:00 22.9 20 Norte 24 Norte 0 1013.1 0.9 84
2019-08-27 22:00:00 23 21 Norte 30 Norte 0 1012.8 0.7 83
2019-08-27 21:00:00 23.2 15 Norte 24 Norte 0 1012 0.2 80
2019-08-27 20:00:00 23.5 16 Norte 22 Norte 0 1012.2 0.4 76
2019-08-27 19:00:00 24 19 Norte 26 Norte 0 1012.1 0.1 75
2019-08-27 18:00:00 24.1 22 Norte 30 Nordeste 0 1011.8 -0.1 76
2019-08-27 17:00:00 25 18 Norte 26 Norte 0 1011.8 -0.8 72
2019-08-27 16:00:00 24.8 21 Norte 28 Norte 0 1012 -0.9 71
2019-08-27 15:00:00 26.1 18 Norte 30 Norte 0 1011.9 -1.5 65
2019-08-27 14:00:00 25.6 16 Norte 28 Norte 0 1012.6 -0.3 68
2019-08-27 13:00:00 25.4 16 Norte 24 Norte 0 1012.9 0.5 67
2019-08-27 12:00:00 24.3 21 Norte 35 Nordeste 0 1013.4 1.6 73
2019-08-27 11:00:00 23.9 26 Norte 30 Norte 0 1012.9 1.7 75
2019-08-27 10:00:00 23.3 18 Noroeste 28 Norte 0 1012.4 1.4 72
2019-08-27 09:00:00 23 21 Norte 30 Norte 0 1011.8 1 75
2019-08-27 08:00:00 22.7 19 Noroeste 30 Norte 0 1011.2 0.6 74
2019-08-27 07:00:00 22.7 20 Norte 30 Norte 0 1011 0.1 76
2019-08-27 06:00:00 22.6 19 Norte 33 Nordeste 0 1010.8 -0.4 76
2019-08-27 05:00:00 22.7 22 Norte 39 Norte 0 1010.6 -1.3 77
2019-08-27 04:00:00 22.9 18 Norte 28 Norte 0 1010.9 -1.4 77
2019-08-27 03:00:00 23 19 Norte 30 Norte 0 1011.2 -1.3 78
2019-08-27 02:00:00 23.1 22 Norte 28 Norte 0 1011.9 -0.5 77
2019-08-27 01:00:00 23.2 17 Norte 24 Norte 0 1012.3 0.3 79
2019-08-27 00:00:00 23.2 16 Norte 30 Norte 0 1012.5 1 80
2019-08-26 23:00:00 23.2 17 Norte 26 Norte 0 1012.4 1.2 78
2019-08-26 22:00:00 23.4 24 Norte 30 Norte 0 1012 1 79
2019-08-26 21:00:00 23.4 21 Norte 32 Norte 0 1011.5 0.5 80
2019-08-26 20:00:00 23.7 24 Norte 33 Norte 0 1011.2 0.1 80
2019-08-26 19:00:00 23.8 28 Norte 35 Norte 0 1011 -0.4 79
2019-08-26 18:00:00 24.5 22 Norte 30 Norte 0 1011 -0.5 78
2019-08-26 17:00:00 24.8 23 Norte 33 Norte 0 1011.1 -0.7 77
2019-08-26 16:00:00 25 24 Norte 32 Nordeste 0 1011.4 -0.8 77
2019-08-26 15:00:00 25.1 22 Norte 30 Norte 0 1011.5 -0.8 76
2019-08-26 14:00:00 25.7 22 Norte 28 Norte 0 1011.8 0 73
2019-08-26 13:00:00 25.5 19 Norte 24 Norte 0 1012.2 0.5 74
2019-08-26 12:00:00 25.5 19 Norte 28 Norte 0 1012.3 1.1 75
2019-08-26 11:00:00 25.6 22 Norte 28 Norte 0 1011.8 0.9 76
2019-08-26 10:00:00 24.2 17 Norte 26 Norte 0 1011.7 1.3 80
2019-08-26 09:00:00 23 18 Norte 28 Noroeste 0 1011.2 0.8 84
2019-08-26 08:00:00 22.7 19 Norte 30 Norte 0 1010.9 0.6 81
2019-08-26 07:00:00 22.5 17 Norte 33 Norte 0 1010.4 0 86
2019-08-26 06:00:00 22.6 20 Norte 35 Norte 0 1010.4 -0.1 85
2019-08-26 05:00:00 22.5 21 Norte 30 Norte 0 1010.3 -0.7 85
2019-08-26 04:00:00 22.5 22 Norte 35 Norte 0 1010.4 -0.1 86
2019-08-26 03:00:00 22.9 20 Norte 32 Norte 0 1010.5 -0.5 83
2019-08-26 02:00:00 22.9 24 Norte 32 Norte 0 1011 0.3 88
2019-08-26 01:00:00 22.8 22 Norte 28 Norte 0 1010.5 -0.1 87
2019-08-26 00:00:00 23.2 21 Norte 30 Norte 0 1011 1 87
2019-08-25 23:00:00 23.5 18 Norte 30 Norte 0 1010.7 0.8 83
2019-08-25 22:00:00 23.7 22 Norte 30 Norte 0 1010.6 0.8 83
2019-08-25 21:00:00 24 19 Norte 30 Norte 0 1010 0.4 80
2019-08-25 20:00:00 24.4 23 Norte 32 Norte 0 1009.9 0.4 80
2019-08-25 19:00:00 25.4 22 Noroeste 30 Noroeste 0 1009.8 0 75
2019-08-25 18:00:00 25.9 22 Norte 32 Norte 0 1009.6 -0.3 79
2019-08-25 17:00:00 27.2 18 Norte 28 Norte 0 1009.5 -0.5 67
2019-08-25 16:00:00 27.3 19 Norte 28 Norte 0 1009.8 -0.5 66
2019-08-25 15:00:00 27.2 19 Norte 26 Norte 0 1009.9 -1.3 70
2019-08-25 14:00:00 27.9 15 Norte 22 Norte 0 1010 -1.1 62
2019-08-25 13:00:00 28.2 15 Norte 22 Norte 0 1010.3 -0.7 58
2019-08-25 12:00:00 28.9 16 Norte 26 Norte 0 1011.2 0 46
2019-08-25 11:00:00 27.6 15 Norte 24 Norte 0 1011.1 0.7 52
2019-08-25 10:00:00 25.1 17 Norte 35 Norte 0 1011 1.2 76
2019-08-25 09:00:00 24.1 24 Norte 33 Norte 0 1011.2 1.9 79
2019-08-25 08:00:00 23.5 23 Norte 37 Norte 0 1010.4 0.6 78
2019-08-25 07:00:00 22.9 27 Norte 39 Norte 0 1009.8 0.3 87
2019-08-25 06:00:00 23.1 23 Norte 30 Norte 0 1009.3 -0.9 85
2019-08-25 05:00:00 23.1 23 Norte 32 Norte 0 1009.8 -1.3 87
2019-08-25 04:00:00 23 21 Norte 39 Norte 0 1009.5 -1.2 87
2019-08-25 03:00:00 23.1 26 Norte 39 Norte 0 1010.2 -0.3 88
2019-08-25 02:00:00 23.1 21 Norte 32 Norte 0 1011.1 0.7 89
2019-08-25 01:00:00 23.1 23 Norte 39 Norte 0 1010.7 0.4 90
2019-08-25 00:00:00 23.3 27 Norte 37 Norte 0 1010.5 0.9 89
2019-08-24 23:00:00 23.5 24 Norte 35 Norte 0 1010.4 0.9 88
2019-08-24 22:00:00 23.8 15 Noroeste 28 Norte 0 1010.3 0.6 85
2019-08-24 21:00:00 23.9 17 Norte 37 Norte 0 1009.6 -0.1 85
2019-08-24 20:00:00 24.1 29 Norte 37 Norte 0 1009.5 -0.2 85
2019-08-24 19:00:00 24.7 24 Norte 41 Norte 0 1009.7 -0.4 82
2019-08-24 18:00:00 25.2 27 Norte 37 Norte 0 1009.7 -0.5 79
2019-08-24 17:00:00 26.1 25 Norte 35 Norte 0 1009.7 -0.8 75
2019-08-24 16:00:00 26.1 26 Norte 35 Norte 0 1010.1 -0.5 76
2019-08-24 15:00:00 26.3 23 Norte 32 Norte 0 1010.2 -0.6 74
2019-08-24 14:00:00 26 25 Norte 39 Norte 0 1010.5 -0.4 76
2019-08-24 13:00:00 26.1 24 Norte 30 Norte 0 1010.6 -0.1 75
2019-08-24 12:00:00 25.5 25 Norte 37 Norte 0 1010.8 0 77
2019-08-24 11:00:00 25 23 Norte 37 Norte 0 1010.9 1.6 78
2019-08-24 10:00:00 24.1 23 Norte 33 Norte 0 1010.7 0.6 82
2019-08-24 09:00:00 23.2 17 Norte 37 Norte 0 1010.8 0.4 86
2019-08-24 08:00:00 22.9 22 Nordeste 35 Noroeste 0 1009.3 -0.7 79
2019-08-24 07:00:00 22.5 17 Norte 30 Noroeste 0 1010.1 0.7 80
2019-08-24 06:00:00 22.4 17 Noroeste 30 Norte 0 1010.4 0.4 81
2019-08-24 05:00:00 22.6 22 Norte 39 Norte 0 1010 -0.3 83
2019-08-24 04:00:00 22.7 21 Norte 37 Norte 0 1009.4 -1.2 80
2019-08-24 03:00:00 22.9 26 Norte 41 Norte 0 1010 -1 81
2019-08-24 02:00:00 22.9 28 Norte 42 Norte 0 1010.3 -0.6 82
2019-08-24 01:00:00 22.9 23 Norte 35 Norte 0 1010.6 0.1 81
2019-08-24 00:00:00 23 28 Norte 41 Norte 0 1011 1.3 82
2019-08-23 23:00:00 23 31 Norte 45 Norte 0 1010.9 1.4 83
2019-08-23 22:00:00 22.9 26 Norte 41 Norte 0 1010.5 0.9 82
2019-08-23 21:00:00 23 30 Norte 37 Norte 0 1009.7 -0.2 82
2019-08-23 20:00:00 23.3 30 Norte 39 Norte 0 1009.5 -0.2 81
2019-08-23 19:00:00 23.7 30 Norte 37 Norte 0 1009.6 -0.3 80
2019-08-23 18:00:00 24.5 26 Norte 35 Norte 0 1009.9 -0.3 77
2019-08-23 17:00:00 24.9 28 Norte 39 Norte 0 1009.7 -0.8 75
2019-08-23 16:00:00 25.2 26 Norte 41 Nordeste 0 1009.9 -1.1 73
2019-08-23 15:00:00 25.2 29 Norte 37 Nordeste 0 1010.2 -0.6 73
2019-08-23 14:00:00 25.2 29 Norte 41 Nordeste 0 1010.5 -0.5 73
2019-08-23 13:00:00 25 24 Norte 35 Nordeste 0 1011 0.2 73
2019-08-23 12:00:00 24.5 26 Norte 35 Norte 0 1010.8 0.4 74
2019-08-23 11:00:00 23.8 24 Norte 33 Norte 0 1011 1.1 76
2019-08-23 10:00:00 24.1 22 Norte 32 Norte 0 1010.8 1.3 74
2019-08-23 09:00:00 22.4 17 Norte 32 Noroeste 0 1010.4 1.3 79
2019-08-23 08:00:00 21.7 17 Norte 32 Norte 0 1009.9 0.9 79
2019-08-23 07:00:00 21.7 19 Norte 33 Norte 0 1009.5 0.6 82
2019-08-23 06:00:00 21.6 22 Norte 39 Norte 0 1009.1 -0.3 80
2019-08-23 05:00:00 21.7 22 Norte 33 Norte 0 1009 -0.7 80
2019-08-23 04:00:00 21.8 19 Norte 35 Norte 0 1008.9 -1.2 79
2019-08-23 03:00:00 21.8 19 Norte 32 Norte 0 1009.4 -1.1 78
2019-08-23 02:00:00 21.8 17 Noroeste 32 Norte 0 1009.7 -0.6 77
2019-08-23 01:00:00 22 25 Norte 35 Norte 0 1010.1 0.3 79
2019-08-23 00:00:00 22.1 27 Norte 42 Norte 0 1010.5 0.8 80